Time;durP1;ratioP1;P1;durP2;ratioP2;P2;SDS_P1;SDS_P2;PMS_P1;PMS_P2;Temp;Humidity;BMP_temperature;BMP_pressure;BME280_temperature;BME280_humidity;BME280_pressure;Samples;Min_cycle;Max_cycle;Signal;HPM_P1;HPM_P2
2021/12/11 00:04:50;;;;;;;14.27;7.22;;;;;;;;;;5035754;28;20041;-81
2021/12/11 00:18:29;;;;;;;;;;;;;;;;;;;;;
2021/12/11 00:21:34;;;;;;;17.83;8.02;;;;;;;;;;4905049;29;20115;-83
2021/12/11 00:28:09;;;;;;;15.23;7.53;;;;;;;;;;4933047;29;20126;-82
2021/12/11 00:31:02;;;;;;;15.40;8.40;;;;;;;;;;4925339;29;20063;-83
2021/12/11 00:37:44;;;;;;;16.35;8.35;;;;;;;;;;4926783;29;20067;-84
2021/12/11 00:40:49;;;;;;;14.73;8.27;;;;;;;;;;4939580;29;20122;-83
2021/12/11 00:51:11;;;;;;;;;;;;;;;;;;;;;
2021/12/11 00:54:49;;;;;;;16.67;8.38;;;;;;;;;;5016245;28;20064;-81
2021/12/11 00:57:40;;;;;;;14.35;7.65;;;;;;;;;;4971533;28;20584;-81
2021/12/11 01:00:35;;;;;;;17.92;9.25;;;;;;;;;;5011972;28;20056;-82
2021/12/11 01:03:32;;;;;;;;;;;;;;;;;;;;;
2021/12/11 01:06:19;;;;;;;13.45;7.55;;;;;;;;;;5041128;28;20104;-82
2021/12/11 01:09:20;;;;;;;19.08;8.10;;;;;;;;;;5023215;28;20096;-82
2021/12/11 01:12:44;;;;;;;17.45;8.65;;;;;;;;;;5008731;28;20033;-82
2021/12/11 01:15:07;;;;;;;16.23;8.63;;;;;;;;;;5031525;28;20030;-83
2021/12/11 01:18:21;;;;;;;16.55;8.40;;;;;;;;;;5042121;28;20037;-83
2021/12/11 01:21:08;;;;;;;15.60;8.38;;;;;;;;;;5040626;28;20398;-82
2021/12/11 01:26:37;;;;;;;19.70;8.88;;;;;;;;;;5042314;28;20021;-83
2021/12/11 01:29:13;;;;;;;15.65;7.55;;;;;;;;;;5024312;28;20030;-81
2021/12/11 01:32:13;;;;;;;19.70;8.50;;;;;;;;;;5021658;28;20029;-81
2021/12/11 01:35:13;;;;;;;15.88;8.63;;;;;;;;;;5018055;28;20037;-83
2021/12/11 01:38:52;;;;;;;16.00;8.05;;;;;;;;;;5030944;28;20067;-83
2021/12/11 01:41:50;;;;;;;;;;;;;;;;;;;;;
2021/12/11 01:44:45;;;;;;;16.88;8.00;;;;;;;;;;5060021;28;20267;-82
2021/12/11 01:47:30;;;;;;;15.05;7.20;;;;;;;;;;5027776;28;20026;-79
2021/12/11 01:50:33;;;;;;;17.02;8.20;;;;;;;;;;5043004;28;20029;-80
2021/12/11 01:53:24;;;;;;;19.27;8.35;;;;;;;;;;5030587;28;20034;-81
2021/12/11 01:56:07;;;;;;;15.52;8.25;;;;;;;;;;5019711;28;20123;-80
2021/12/11 01:59:41;;;;;;;14.23;8.02;;;;;;;;;;5019776;28;20052;-81
2021/12/11 02:02:54;;;;;;;18.90;8.88;;;;;;;;;;5008448;23;20454;-81
2021/12/11 02:06:27;;;;;;;;;;;;;;;;;;;;;
2021/12/11 02:09:08;;;;;;;16.90;8.40;;;;;;;;;;5013778;28;20040;-81
2021/12/11 02:12:29;;;;;;;;;;;;;;;;;;;;;
2021/12/11 02:18:58;;;;;;;18.75;8.10;;;;;;;;;;4941031;28;20060;-82
2021/12/11 02:28:36;;;;;;;;;;;;;;;;;;;;;
2021/12/11 02:31:49;;;;;;;19.02;9.23;;;;;;;;;;5014656;28;20026;-83
2021/12/11 02:34:46;;;;;;;15.23;8.07;;;;;;;;;;4908499;29;20040;-82
2021/12/11 02:41:13;;;;;;;20.92;9.57;;;;;;;;;;5017465;28;20106;-81
2021/12/11 02:43:45;;;;;;;19.48;8.90;;;;;;;;;;5000576;28;20040;-82
2021/12/11 02:46:33;;;;;;;21.00;10.25;;;;;;;;;;5016948;28;20487;-81
2021/12/11 02:49:06;;;;;;;18.92;10.15;;;;;;;;;;5015862;28;20407;-82
2021/12/11 02:51:50;;;;;;;18.80;9.65;;;;;;;;;;5016212;28;20133;-82
2021/12/11 02:54:28;;;;;;;18.25;8.90;;;;;;;;;;5016688;28;20037;-82
2021/12/11 02:57:05;;;;;;;17.42;9.25;;;;;;;;;;5016936;28;20026;-83
2021/12/11 02:59:42;;;;;;;17.98;8.75;;;;;;;;;;5014941;28;20088;-83
2021/12/11 03:02:31;;;;;;;21.08;9.93;;;;;;;;;;5015568;28;20038;-83
2021/12/11 03:05:20;;;;;;;19.17;9.18;;;;;;;;;;5015512;28;20033;-82
2021/12/11 03:08:01;;;;;;;19.00;10.70;;;;;;;;;;5016629;28;20025;-83
2021/12/11 03:10:29;;;;;;;18.00;9.38;;;;;;;;;;5016425;28;20022;-83
2021/12/11 03:13:08;;;;;;;20.35;9.45;;;;;;;;;;5015353;28;20053;-83
2021/12/11 03:15:57;;;;;;;;;;;;;;;;;;;;;
2021/12/11 03:18:46;;;;;;;21.13;10.85;;;;;;;;;;5017601;28;20105;-83
2021/12/11 03:21:46;;;;;;;21.10;10.00;;;;;;;;;;5016528;28;20109;-83
2021/12/11 03:24:36;;;;;;;23.85;11.18;;;;;;;;;;5007718;28;20091;-84
2021/12/11 03:27:32;;;;;;;;;;;;;;;;;;;;;
2021/12/11 03:30:32;;;;;;;19.70;10.05;;;;;;;;;;5017974;28;20108;-83
2021/12/11 03:33:17;;;;;;;19.40;10.27;;;;;;;;;;5011446;28;20041;-83
2021/12/11 03:36:30;;;;;;;22.33;10.77;;;;;;;;;;5014970;28;20079;-83
2021/12/11 03:46:02;;;;;;;26.73;10.02;;;;;;;;;;5018085;28;20112;-83
2021/12/11 03:52:42;;;;;;;18.92;10.23;;;;;;;;;;5022337;28;20403;-83
2021/12/11 03:55:12;;;;;;;21.52;10.35;;;;;;;;;;5020556;28;20037;-82
2021/12/11 04:01:24;;;;;;;25.50;10.20;;;;;;;;;;5020122;28;20041;-83
2021/12/11 04:04:05;;;;;;;21.75;10.25;;;;;;;;;;5022233;28;20489;-83
2021/12/11 04:06:49;;;;;;;21.38;10.55;;;;;;;;;;5019866;28;20096;-82
2021/12/11 04:09:50;;;;;;;20.80;10.43;;;;;;;;;;5020816;28;20506;-82
2021/12/11 04:16:22;;;;;;;18.75;9.57;;;;;;;;;;5020335;28;20036;-84
2021/12/11 04:22:02;;;;;;;17.33;9.50;;;;;;;;;;5020777;28;20515;-83
2021/12/11 04:24:46;;;;;;;24.67;10.40;;;;;;;;;;5019181;28;20030;-83
2021/12/11 04:27:33;;;;;;;22.65;10.55;;;;;;;;;;5018544;28;20033;-84
2021/12/11 04:30:17;;;;;;;21.27;10.52;;;;;;;;;;5019987;28;20402;-83
2021/12/11 04:33:19;;;;;;;;;;;;;;;;;;;;;
2021/12/11 04:36:26;;;;;;;21.23;10.98;;;;;;;;;;5019322;28;20049;-83
2021/12/11 04:42:15;;;;;;;21.92;10.45;;;;;;;;;;5014291;28;20032;-83
2021/12/11 04:45:03;;;;;;;19.40;10.35;;;;;;;;;;5016700;28;20022;-83
2021/12/11 04:48:11;;;;;;;20.35;9.95;;;;;;;;;;5025439;28;20057;-81
2021/12/11 05:00:13;;;;;;;19.08;9.80;;;;;;;;;;5020110;28;20038;-82
2021/12/11 05:11:00;;;;;;;19.40;10.68;;;;;;;;;;5000669;28;20038;-82
2021/12/11 05:13:32;;;;;;;21.95;10.15;;;;;;;;;;5017804;28;20109;-82
2021/12/11 05:16:04;;;;;;;22.10;9.90;;;;;;;;;;5018936;28;20091;-81
2021/12/11 05:18:34;;;;;;;18.63;9.80;;;;;;;;;;5018694;28;20024;-82
2021/12/11 05:21:25;;;;;;;;;;;;;;;;;;;;;
2021/12/11 05:23:52;;;;;;;24.27;10.48;;;;;;;;;;5018273;28;20024;-80
2021/12/11 05:27:03;;;;;;;23.08;9.90;;;;;;;;;;5029840;28;20030;-80
2021/12/11 05:33:22;;;;;;;20.38;10.13;;;;;;;;;;5013209;28;20056;-83
2021/12/11 05:36:10;;;;;;;19.65;10.38;;;;;;;;;;5018683;28;20036;-82
2021/12/11 05:38:47;;;;;;;22.25;9.80;;;;;;;;;;5019379;28;20029;-82
2021/12/11 05:41:19;;;;;;;23.95;10.85;;;;;;;;;;5019385;28;20022;-83
2021/12/11 05:44:03;;;;;;;19.65;10.15;;;;;;;;;;5015224;28;20030;-83
2021/12/11 05:46:32;;;;;;;22.25;11.50;;;;;;;;;;5033448;28;20034;-82
2021/12/11 05:49:00;;;;;;;24.90;11.52;;;;;;;;;;5017250;28;20025;-82
2021/12/11 05:51:36;;;;;;;25.63;10.98;;;;;;;;;;5017473;28;20042;-82
2021/12/11 05:54:10;;;;;;;19.30;10.75;;;;;;;;;;5017499;28;20022;-83
2021/12/11 05:56:40;;;;;;;20.90;10.60;;;;;;;;;;5018175;28;20034;-83
2021/12/11 05:59:20;;;;;;;22.52;11.02;;;;;;;;;;5017460;28;20044;-83
2021/12/11 06:04:56;;;;;;;21.45;11.45;;;;;;;;;;5022457;28;20163;-80
2021/12/11 06:07:31;;;;;;;21.48;10.77;;;;;;;;;;5018569;28;20029;-82
2021/12/11 06:10:09;;;;;;;23.60;11.40;;;;;;;;;;5016960;28;20056;-82
2021/12/11 06:12:39;;;;;;;24.75;11.23;;;;;;;;;;5018284;28;20033;-82
2021/12/11 06:15:13;;;;;;;23.73;11.18;;;;;;;;;;5018117;28;20040;-81
2021/12/11 06:18:02;;;;;;;22.83;10.70;;;;;;;;;;5017198;28;20022;-82
2021/12/11 06:20:30;;;;;;;24.25;12.05;;;;;;;;;;5021033;28;20471;-83
2021/12/11 06:22:58;;;;;;;21.35;10.20;;;;;;;;;;5020456;28;20112;-82
2021/12/11 06:25:29;;;;;;;28.77;13.05;;;;;;;;;;5020284;28;20028;-82
2021/12/11 06:27:58;;;;;;;26.92;12.15;;;;;;;;;;5019036;28;20034;-83
2021/12/11 06:30:27;;;;;;;31.15;12.93;;;;;;;;;;5019560;28;20052;-83
2021/12/11 06:33:24;;;;;;;29.00;13.25;;;;;;;;;;5015892;28;20517;-82
2021/12/11 06:36:02;;;;;;;28.48;12.95;;;;;;;;;;5017234;28;20040;-82
2021/12/11 06:38:32;;;;;;;32.75;14.73;;;;;;;;;;5018554;28;20387;-82
2021/12/11 06:41:11;;;;;;;31.10;13.95;;;;;;;;;;5018435;28;20091;-82
2021/12/11 06:43:43;;;;;;;26.10;12.98;;;;;;;;;;5017518;28;20030;-82
2021/12/11 06:46:11;;;;;;;31.00;12.70;;;;;;;;;;5015495;28;20038;-82
2021/12/11 06:48:53;;;;;;;26.33;11.55;;;;;;;;;;5020095;28;20025;-82
2021/12/11 06:51:33;;;;;;;28.02;12.30;;;;;;;;;;5019382;28;20040;-82
2021/12/11 06:54:04;;;;;;;31.90;13.70;;;;;;;;;;5018332;28;20483;-80
2021/12/11 06:56:36;;;;;;;31.30;14.35;;;;;;;;;;5018007;28;20538;-80
2021/12/11 06:59:03;;;;;;;35.42;14.55;;;;;;;;;;5016205;28;20034;-82
2021/12/11 07:01:37;;;;;;;32.15;14.00;;;;;;;;;;5015188;28;20056;-82
2021/12/11 07:04:53;;;;;;;33.08;15.00;;;;;;;;;;5031046;28;20032;-82
2021/12/11 07:07:52;;;;;;;28.50;12.88;;;;;;;;;;5015317;28;20432;-80
2021/12/11 07:10:20;;;;;;;21.95;11.43;;;;;;;;;;5015128;28;20032;-82
2021/12/11 07:12:48;;;;;;;29.42;12.75;;;;;;;;;;5014784;28;20573;-82
2021/12/11 07:15:19;;;;;;;27.60;13.05;;;;;;;;;;5014692;28;20037;-81
2021/12/11 07:17:52;;;;;;;24.85;10.35;;;;;;;;;;5015654;28;20064;-81
2021/12/11 07:20:34;;;;;;;24.67;10.70;;;;;;;;;;5015513;28;20033;-82
2021/12/11 07:23:06;;;;;;;25.00;11.15;;;;;;;;;;5015552;28;20040;-83
2021/12/11 07:25:46;;;;;;;22.27;10.82;;;;;;;;;;5014274;28;20028;-83
2021/12/11 07:28:15;;;;;;;31.90;13.13;;;;;;;;;;5016227;28;20033;-80
2021/12/11 07:33:59;;;;;;;25.73;11.88;;;;;;;;;;5016815;28;20113;-81
2021/12/11 07:36:53;;;;;;;33.45;12.38;;;;;;;;;;5016176;28;20034;-81
2021/12/11 07:39:44;;;;;;;31.80;13.45;;;;;;;;;;5004270;28;20029;-81
2021/12/11 07:42:38;;;;;;;24.27;11.63;;;;;;;;;;5015582;28;20039;-82
2021/12/11 07:45:16;;;;;;;25.73;12.52;;;;;;;;;;5013713;28;20501;-82
2021/12/11 07:51:45;;;;;;;26.52;11.82;;;;;;;;;;5015604;28;20109;-82
2021/12/11 07:57:08;;;;;;;22.73;10.82;;;;;;;;;;5020274;28;20052;-81
2021/12/11 08:00:01;;;;;;;25.17;12.32;;;;;;;;;;5020428;28;20044;-82
2021/12/11 08:02:46;;;;;;;28.13;10.98;;;;;;;;;;5020279;28;20018;-81
2021/12/11 08:05:17;;;;;;;19.55;10.70;;;;;;;;;;5016882;28;20026;-81
2021/12/11 08:08:09;;;;;;;22.25;9.95;;;;;;;;;;5014031;28;20026;-82
2021/12/11 08:11:17;;;;;;;;;;;;;;;;;;;;;
2021/12/11 08:17:06;;;;;;;26.42;11.25;;;;;;;;;;5014901;28;20369;-81
2021/12/11 08:27:35;;;;;;;22.00;10.38;;;;;;;;;;4933239;29;20083;-83
2021/12/11 08:34:22;;;;;;;25.98;11.30;;;;;;;;;;4935903;29;20034;-81
2021/12/11 08:57:49;;;;;;;23.15;11.23;;;;;;;;;;5017535;28;20037;-82
2021/12/11 09:05:05;;;;;;;24.55;11.57;;;;;;;;;;4881789;29;20499;-82
2021/12/11 09:47:34;;;;;;;;;;;;;;;;;;;;;
2021/12/11 09:50:45;;;;;;;;;;;;;;;;;;;;;
2021/12/11 10:04:10;;;;;;;26.40;11.48;;;;;;;;;;4843797;29;20049;-81
2021/12/11 11:10:01;;;;;;;25.70;10.75;;;;;;;;;;5006302;28;20068;-77
2021/12/11 11:12:29;;;;;;;28.48;12.35;;;;;;;;;;5011985;28;20058;-77
2021/12/11 11:14:55;;;;;;;24.33;11.05;;;;;;;;;;5022844;28;20079;-77
2021/12/11 11:17:26;;;;;;;21.48;11.05;;;;;;;;;;5034414;28;20049;-78
2021/12/11 11:19:51;;;;;;;22.13;11.15;;;;;;;;;;5034678;28;20029;-78
2021/12/11 11:22:21;;;;;;;23.88;10.68;;;;;;;;;;5013507;28;20022;-78
2021/12/11 11:24:54;;;;;;;24.83;11.73;;;;;;;;;;5034755;28;20037;-77
2021/12/11 11:27:20;;;;;;;22.55;11.52;;;;;;;;;;5035869;28;20053;-78
2021/12/11 11:29:49;;;;;;;21.85;11.55;;;;;;;;;;5034102;28;20037;-78
2021/12/11 11:32:28;;;;;;;28.50;10.32;;;;;;;;;;5034732;28;20489;-78
2021/12/11 11:34:53;;;;;;;23.65;11.70;;;;;;;;;;5035269;28;20025;-78
2021/12/11 11:37:22;;;;;;;26.92;11.48;;;;;;;;;;5034626;28;20026;-77
2021/12/11 11:39:49;;;;;;;24.23;11.77;;;;;;;;;;5033361;28;20111;-77
2021/12/11 11:42:19;;;;;;;29.83;11.50;;;;;;;;;;5032940;28;20490;-76
2021/12/11 11:44:46;;;;;;;27.83;12.10;;;;;;;;;;5032840;28;20065;-77
2021/12/11 11:47:13;;;;;;;27.15;11.93;;;;;;;;;;5013894;28;20026;-81
2021/12/11 11:49:38;;;;;;;24.20;11.35;;;;;;;;;;5016288;28;20483;-79
2021/12/11 13:18:31;;;;;;;;;;;;;;;;;;;;;
2021/12/11 13:32:24;;;;;;;30.67;13.35;;;;;;;;;;4919784;29;20115;-81
2021/12/11 16:55:23;;;;;;;;;;;;;;;;;;;;;
2021/12/11 16:58:59;;;;;;;48.67;20.02;;;;;;;;;;4828263;29;20078;-80
2021/12/11 17:09:12;;;;;;;44.40;20.35;;;;;;;;;;4863364;29;20491;-81
2021/12/11 17:21:26;;;;;;;;;;;;;;;;;;;;;
2021/12/11 17:32:40;;;;;;;49.30;21.00;;;;;;;;;;4851887;29;20422;-80
2021/12/11 17:53:44;;;;;;;59.88;24.20;;;;;;;;;;4856952;29;20064;-82
2021/12/11 17:57:01;;;;;;;;;;;;;;;;;;;;;
2021/12/11 18:27:23;;;;;;;57.85;24.63;;;;;;;;;;1068106;26;20305;-81
2021/12/11 18:30:40;;;;;;;49.85;22.90;;;;;;;;;;5018728;28;20056;-79
2021/12/11 21:27:06;;;;;;;40.67;19.63;;;;;;;;;;5030489;28;20044;-84
2021/12/11 22:50:39;;;;;;;;;;;;;;;;;;;;;
